createdAt,value
2023-01-18T00:01:16.391Z,99694.56
2023-01-18T00:03:43.526Z,99686.50
2023-01-18T00:06:11.580Z,99691.28
2023-01-18T00:08:40.271Z,99687.63
2023-01-18T00:11:16.024Z,99697.78
2023-01-18T00:13:43.737Z,99695.31
2023-01-18T00:16:15.681Z,99703.47
2023-01-18T00:18:43.508Z,99679.28
2023-01-18T00:21:12.270Z,99710.34
2023-01-18T00:23:39.370Z,99701.25
2023-01-18T00:26:08.983Z,99709.69
2023-01-18T00:28:37.111Z,99718.16
2023-01-18T00:31:17.891Z,99708.75
2023-01-18T00:33:46.235Z,99709.78
2023-01-18T00:36:14.421Z,99717.72
2023-01-18T00:38:42.289Z,99714.56
2023-01-18T00:41:09.537Z,99715.84
2023-01-18T00:43:39.492Z,99715.63
2023-01-18T00:46:12.421Z,99725.78
2023-01-18T00:48:41.063Z,99702.00
2023-01-18T00:51:09.925Z,99707.88
2023-01-18T00:53:39.922Z,99697.72
2023-01-18T00:56:11.497Z,99665.78
2023-01-18T00:58:38.634Z,99667.41
2023-01-18T01:01:07.635Z,99670.13
2023-01-18T01:03:54.818Z,99692.53
2023-01-18T01:06:44.506Z,99696.34
2023-01-18T01:09:29.325Z,99692.22
2023-01-18T01:12:16.971Z,99683.94
2023-01-18T01:15:05.746Z,99701.25
2023-01-18T01:17:54.477Z,99686.81
2023-01-18T01:20:41.104Z,99686.28
2023-01-18T01:23:35.750Z,99677.31
2023-01-18T01:26:13.827Z,99664.91
2023-01-18T01:28:45.564Z,99673.09
2023-01-18T01:31:14.762Z,99672.59
2023-01-18T01:33:42.120Z,99667.13
2023-01-18T01:36:18.064Z,99691.75
2023-01-18T01:38:45.325Z,99688.81
2023-01-18T01:41:27.889Z,99685.94
2023-01-18T01:43:56.254Z,99674.22
2023-01-18T01:46:35.391Z,99681.81
2023-01-18T01:49:24.123Z,99672.13
2023-01-18T01:52:22.616Z,99672.66
2023-01-18T01:55:23.075Z,99673.91
2023-01-18T01:58:03.622Z,99668.97
2023-01-18T02:00:31.431Z,99667.69
2023-01-18T02:03:05.769Z,99663.69
2023-01-18T02:05:36.015Z,99644.28
2023-01-18T02:08:04.137Z,99660.47
2023-01-18T02:10:31.348Z,99659.81
2023-01-18T02:13:00.511Z,99652.97
2023-01-18T02:15:40.387Z,99640.72
2023-01-18T02:18:12.024Z,99627.59
2023-01-18T02:21:03.915Z,99650.06
2023-01-18T02:23:46.797Z,99659.25
2023-01-18T02:26:37.943Z,99651.75
2023-01-18T02:29:17.704Z,99673.66
2023-01-18T02:32:02.238Z,99672.94
2023-01-18T02:34:41.163Z,99664.47
2023-01-18T02:37:26.430Z,99678.28
2023-01-18T02:40:17.837Z,99668.34
2023-01-18T02:43:03.964Z,99678.06
2023-01-18T02:46:05.739Z,99672.34
2023-01-18T02:48:42.934Z,99660.56
2023-01-18T02:51:10.353Z,99687.22
2023-01-18T02:53:44.545Z,99670.53
2023-01-18T02:56:21.322Z,99668.81
2023-01-18T02:59:01.113Z,99661.59
2023-01-18T03:01:41.776Z,99657.88
2023-01-18T03:04:35.618Z,99655.06
2023-01-18T03:07:12.150Z,99677.88
2023-01-18T03:09:41.794Z,99680.94
2023-01-18T03:12:21.752Z,99676.78
2023-01-18T03:15:10.072Z,99669.34
2023-01-18T03:17:50.172Z,99656.66
2023-01-18T03:20:25.859Z,99675.00
2023-01-18T03:23:19.847Z,99679.97
2023-01-18T03:25:50.609Z,99695.13
2023-01-18T03:28:51.856Z,99707.44
2023-01-18T03:31:40.966Z,99709.97
2023-01-18T03:34:22.618Z,99700.69
2023-01-18T03:36:53.159Z,99699.00
2023-01-18T03:39:36.890Z,99711.06
2023-01-18T03:42:15.117Z,99707.88
2023-01-18T03:44:50.973Z,99706.31
2023-01-18T03:47:18.256Z,99715.97
2023-01-18T03:49:45.709Z,99696.09
2023-01-18T03:52:23.137Z,99706.75
2023-01-18T03:55:02.665Z,99716.91
2023-01-18T03:57:39.651Z,99718.84
2023-01-18T04:00:09.268Z,99714.69
2023-01-18T04:02:47.426Z,99710.63
2023-01-18T04:05:15.441Z,99722.69
2023-01-18T04:07:43.248Z,99733.38
2023-01-18T04:10:11.279Z,99726.59
2023-01-18T04:12:39.780Z,99725.13
2023-01-18T04:15:07.494Z,99718.31
2023-01-18T04:17:34.592Z,99730.91
2023-01-18T04:20:01.833Z,99699.22
2023-01-18T04:22:30.508Z,99729.06
2023-01-18T04:24:57.576Z,99718.84
2023-01-18T04:27:27.718Z,99714.38
2023-01-18T04:29:54.899Z,99708.44
2023-01-18T04:32:22.069Z,99720.16
2023-01-18T04:34:49.153Z,99739.81
2023-01-18T04:37:16.261Z,99755.28
2023-01-18T04:39:43.399Z,99735.72
2023-01-18T04:42:10.448Z,99754.38
2023-01-18T04:44:37.606Z,99736.88
2023-01-18T04:47:04.758Z,99743.78
2023-01-18T04:49:31.866Z,99752.78
2023-01-18T04:51:58.945Z,99753.44
2023-01-18T04:54:26.199Z,99752.59
2023-01-18T04:56:53.701Z,99750.28
2023-01-18T04:59:20.807Z,99760.69
2023-01-18T05:01:47.873Z,99762.97
2023-01-18T05:04:14.951Z,99756.47
2023-01-18T05:06:42.054Z,99768.56
2023-01-18T05:09:12.592Z,99749.03
2023-01-18T05:11:39.749Z,99760.31
2023-01-18T05:14:06.852Z,99760.03
2023-01-18T05:16:34.078Z,99733.66
2023-01-18T05:19:01.405Z,99758.34
2023-01-18T05:21:28.801Z,99765.03
2023-01-18T05:23:55.878Z,99771.03
2023-01-18T05:26:24.583Z,99759.94
2023-01-18T05:28:57.292Z,99776.50
2023-01-18T05:31:25.092Z,99779.72
2023-01-18T05:33:52.506Z,99790.06
2023-01-18T05:36:19.568Z,99789.69
2023-01-18T05:38:46.936Z,99793.50
2023-01-18T05:41:14.008Z,99789.84
2023-01-18T05:43:41.352Z,99774.28
2023-01-18T05:46:08.497Z,99792.13
2023-01-18T05:48:35.698Z,99783.84
2023-01-18T05:51:11.293Z,99792.44
2023-01-18T05:53:39.875Z,99796.75
2023-01-18T05:56:08.737Z,99805.22
2023-01-18T05:58:36.140Z,99800.66
2023-01-18T06:01:03.395Z,99800.06
2023-01-18T06:03:30.610Z,99803.44
2023-01-18T06:05:59.376Z,99798.09
2023-01-18T06:08:26.702Z,99809.53
2023-01-18T06:10:55.946Z,99800.75
2023-01-18T06:13:24.084Z,99808.91
2023-01-18T06:15:52.043Z,99810.47
2023-01-18T06:18:19.276Z,99794.78
2023-01-18T06:20:46.803Z,99797.38
2023-01-18T06:23:13.894Z,99800.41
2023-01-18T06:25:41.164Z,99799.13
2023-01-18T06:28:08.275Z,99817.22
2023-01-18T06:30:35.400Z,99819.94
2023-01-18T06:33:06.902Z,99819.50
2023-01-18T06:35:34.624Z,99818.00
2023-01-18T06:38:03.429Z,99827.19
2023-01-18T06:40:31.032Z,99827.38
2023-01-18T06:42:58.696Z,99823.31
2023-01-18T06:45:26.409Z,99817.66
2023-01-18T06:47:53.667Z,99833.28
2023-01-18T06:50:21.325Z,99834.56
2023-01-18T06:52:48.707Z,99843.88
2023-01-18T06:55:16.056Z,99816.97
2023-01-18T06:57:43.202Z,99834.72
2023-01-18T07:00:12.186Z,99840.25
2023-01-18T07:02:39.422Z,99845.44
2023-01-18T07:05:07.000Z,99827.31
2023-01-18T07:07:34.265Z,99847.28
2023-01-18T07:10:01.390Z,99849.03
2023-01-18T07:12:30.813Z,99854.75
2023-01-18T07:14:58.225Z,99861.03
2023-01-18T07:17:25.464Z,99860.28
2023-01-18T07:19:52.687Z,99873.63
2023-01-18T07:22:19.801Z,99873.16
2023-01-18T07:24:47.012Z,99860.59
2023-01-18T07:27:14.232Z,99876.22
2023-01-18T07:29:41.299Z,99861.63
2023-01-18T07:32:08.484Z,99870.56
2023-01-18T07:34:35.599Z,99864.97
2023-01-18T07:37:02.766Z,99853.88
2023-01-18T07:39:29.992Z,99867.97
2023-01-18T07:41:57.156Z,99871.50
2023-01-18T07:44:24.348Z,99847.78
2023-01-18T07:46:51.516Z,99878.31
2023-01-18T07:49:18.559Z,99876.69
2023-01-18T07:51:45.683Z,99874.41
2023-01-18T07:54:12.895Z,99872.13
2023-01-18T07:56:40.391Z,99867.09
2023-01-18T07:59:07.581Z,99858.50
2023-01-18T08:01:34.804Z,99870.72
2023-01-18T08:04:01.927Z,99844.78
2023-01-18T08:06:29.084Z,99871.50
2023-01-18T08:08:56.863Z,99861.94
2023-01-18T08:11:24.541Z,99826.94
2023-01-18T08:13:52.942Z,99847.69
2023-01-18T08:16:20.426Z,99838.25
2023-01-18T08:18:50.981Z,99856.03
2023-01-18T08:21:18.509Z,99837.91
2023-01-18T08:23:45.605Z,99839.13
2023-01-18T08:26:15.139Z,99836.41
2023-01-18T08:28:44.845Z,99824.97
2023-01-18T08:31:15.531Z,99849.38
2023-01-18T08:33:46.105Z,99861.41
2023-01-18T08:36:16.598Z,99851.75
2023-01-18T08:38:47.195Z,99871.84
2023-01-18T08:41:14.307Z,99881.88
2023-01-18T08:43:41.431Z,99880.47
2023-01-18T08:46:08.687Z,99891.69
2023-01-18T08:48:35.781Z,99873.97
2023-01-18T08:51:06.332Z,99872.09
2023-01-18T08:53:33.609Z,99869.72
2023-01-18T08:56:05.886Z,99865.19
2023-01-18T08:58:33.491Z,99859.31
2023-01-18T09:01:08.487Z,99872.47
2023-01-18T09:03:36.412Z,99863.31
2023-01-18T09:06:05.966Z,99858.25
2023-01-18T09:08:33.055Z,99867.94
2023-01-18T09:11:08.550Z,99863.03
2023-01-18T09:13:35.732Z,99867.91
2023-01-18T09:16:05.751Z,99873.94
2023-01-18T09:18:33.937Z,99872.28
2023-01-18T09:21:06.723Z,99879.94
2023-01-18T09:23:34.831Z,99870.16
2023-01-18T09:26:16.988Z,99882.13
2023-01-18T09:28:47.348Z,99874.78
2023-01-18T09:31:14.848Z,99893.94
2023-01-18T09:33:51.210Z,99898.44
2023-01-18T09:36:21.687Z,99897.44
2023-01-18T09:38:48.811Z,99884.91
2023-01-18T09:41:25.905Z,99890.44
2023-01-18T09:43:57.186Z,99888.22
2023-01-18T09:46:25.498Z,99881.66
2023-01-18T09:48:57.901Z,99888.31
2023-01-18T09:51:59.395Z,99888.06
2023-01-18T09:54:34.530Z,99886.88
2023-01-18T09:57:31.524Z,99873.63
2023-01-18T10:00:00.748Z,99867.16
2023-01-18T10:02:39.514Z,99891.88
2023-01-18T10:05:21.542Z,99882.66
2023-01-18T10:08:37.999Z,99908.19
2023-01-18T10:11:18.167Z,99915.25
2023-01-18T10:14:03.309Z,99919.25
2023-01-18T10:16:32.629Z,99915.22
2023-01-18T10:19:01.685Z,99903.03
2023-01-18T10:21:43.188Z,99900.59
2023-01-18T10:24:33.376Z,99911.69
2023-01-18T10:27:17.376Z,99898.72
2023-01-18T10:29:57.380Z,99894.78
2023-01-18T10:32:26.435Z,99902.81
2023-01-18T10:34:53.776Z,99898.88
2023-01-18T10:37:45.303Z,99906.75
2023-01-18T10:40:14.792Z,99898.19
2023-01-18T10:42:57.376Z,99887.56
2023-01-18T10:45:28.565Z,99895.59
2023-01-18T10:47:57.146Z,99892.66
2023-01-18T10:50:34.516Z,99886.72
2023-01-18T10:53:31.639Z,99892.66
2023-01-18T10:56:16.669Z,99882.81
2023-01-18T10:58:52.768Z,99882.06
2023-01-18T11:01:23.537Z,99893.75
2023-01-18T11:03:55.441Z,99884.41
2023-01-18T11:06:24.540Z,99897.09
2023-01-18T11:08:52.334Z,99888.91
2023-01-18T11:11:51.046Z,99886.25
2023-01-18T11:14:29.660Z,99893.38
2023-01-18T11:17:11.548Z,99892.50
2023-01-18T11:19:39.459Z,99884.22
2023-01-18T11:22:33.782Z,99905.88
2023-01-18T11:25:00.959Z,99895.78
2023-01-18T11:27:28.396Z,99895.16
2023-01-18T11:29:55.567Z,99888.94
2023-01-18T11:32:28.935Z,99889.34
2023-01-18T11:35:02.544Z,99879.81
2023-01-18T11:37:40.080Z,99883.56
2023-01-18T11:40:19.306Z,99889.56
2023-01-18T11:42:49.338Z,99877.28
2023-01-18T11:45:37.848Z,99887.44
2023-01-18T11:48:30.674Z,99883.91
2023-01-18T11:51:07.332Z,99878.81
2023-01-18T11:53:41.650Z,99876.28
2023-01-18T11:56:20.534Z,99871.38
2023-01-18T11:58:49.681Z,99882.97
2023-01-18T12:01:21.843Z,99880.25
2023-01-18T12:03:56.443Z,99879.53
2023-01-18T12:06:46.565Z,99855.66
2023-01-18T12:09:34.068Z,99885.34
2023-01-18T12:12:27.320Z,99856.63
2023-01-18T12:15:09.760Z,99871.00
2023-01-18T12:18:11.543Z,99886.38
2023-01-18T12:20:59.579Z,99877.59
2023-01-18T12:23:42.407Z,99869.56
2023-01-18T12:26:38.379Z,99867.94
2023-01-18T12:29:35.170Z,99844.00
2023-01-18T12:32:33.080Z,99882.25
2023-01-18T12:35:23.578Z,99861.88
2023-01-18T12:38:09.286Z,99887.56
2023-01-18T12:40:44.851Z,99894.44
2023-01-18T12:43:25.436Z,99909.06
2023-01-18T12:46:21.739Z,99916.25
2023-01-18T12:48:59.853Z,99906.06
2023-01-18T12:51:32.524Z,99912.06
2023-01-18T12:54:05.448Z,99914.06
2023-01-18T12:56:38.594Z,99910.53
2023-01-18T12:59:18.334Z,99898.81
2023-01-18T13:02:00.623Z,99911.13
2023-01-18T13:04:33.561Z,99914.13
2023-01-18T13:07:07.354Z,99908.84
2023-01-18T13:09:40.686Z,99913.97
2023-01-18T13:12:08.464Z,99899.31
2023-01-18T13:14:51.421Z,99885.03
2023-01-18T13:17:22.222Z,99886.69
2023-01-18T13:20:00.431Z,99886.13
2023-01-18T13:22:52.791Z,99898.25
2023-01-18T13:25:34.005Z,99885.59
2023-01-18T13:28:18.186Z,99889.69
2023-01-18T13:30:53.491Z,99899.44
2023-01-18T13:33:27.178Z,99896.66
2023-01-18T13:36:14.335Z,99883.34
2023-01-18T13:38:56.347Z,99882.03
2023-01-18T13:41:26.128Z,99882.25
2023-01-18T13:43:56.881Z,99879.94
2023-01-18T13:46:25.566Z,99902.00
2023-01-18T13:48:57.605Z,99875.19
2023-01-18T13:51:47.754Z,99877.16
2023-01-18T13:54:19.607Z,99867.38
2023-01-18T13:57:02.118Z,99872.03
2023-01-18T13:59:44.695Z,99852.59
2023-01-18T14:02:23.809Z,99857.22
2023-01-18T14:05:07.328Z,99869.84
2023-01-18T14:07:45.039Z,99875.16
2023-01-18T14:10:25.396Z,99879.81
2023-01-18T14:12:55.096Z,99886.56
2023-01-18T14:15:50.298Z,99882.38
2023-01-18T14:18:24.594Z,99883.34
2023-01-18T14:21:22.686Z,99871.22
2023-01-18T14:24:09.946Z,99841.69
2023-01-18T14:26:41.237Z,99877.44
2023-01-18T14:29:36.237Z,99852.34
2023-01-18T14:32:06.877Z,99869.88
2023-01-18T14:34:38.810Z,99853.19
2023-01-18T14:37:33.650Z,99855.69
2023-01-18T14:40:12.945Z,99850.53
2023-01-18T14:43:06.115Z,99849.50
2023-01-18T14:45:39.048Z,99840.34
2023-01-18T14:48:10.222Z,99842.66
2023-01-18T14:50:45.991Z,99834.00
2023-01-18T14:53:27.402Z,99864.19
2023-01-18T14:56:26.239Z,99881.56
2023-01-18T14:58:55.279Z,99867.44
2023-01-18T15:01:36.310Z,99861.03
2023-01-18T15:04:06.734Z,99856.09
2023-01-18T15:06:40.037Z,99839.59
2023-01-18T15:09:09.753Z,99872.06
2023-01-18T15:11:38.661Z,99867.28
2023-01-18T15:14:28.047Z,99872.28
2023-01-18T15:16:57.171Z,99860.03
2023-01-18T15:19:34.448Z,99877.28
2023-01-18T15:22:04.338Z,99879.09
2023-01-18T15:24:39.808Z,99862.94
2023-01-18T15:27:12.786Z,99874.06
2023-01-18T15:29:40.135Z,99868.03
2023-01-18T15:32:14.189Z,99852.31
2023-01-18T15:34:45.305Z,99869.91
2023-01-18T15:37:18.951Z,99866.31
2023-01-18T15:39:56.759Z,99869.84
2023-01-18T15:42:39.203Z,99866.53
2023-01-18T15:45:18.034Z,99877.69
2023-01-18T15:47:52.086Z,99871.94
2023-01-18T15:50:21.295Z,99879.09
2023-01-18T15:53:02.030Z,99869.16
2023-01-18T15:55:40.153Z,99869.16
2023-01-18T15:58:44.610Z,99877.03
2023-01-18T16:01:11.725Z,99873.13
2023-01-18T16:03:41.778Z,99883.75
2023-01-18T16:06:13.798Z,99880.88
2023-01-18T16:09:13.839Z,99871.22
2023-01-18T16:11:40.921Z,99873.16
2023-01-18T16:14:31.411Z,99829.91
2023-01-18T16:17:23.744Z,99873.56
2023-01-18T16:19:58.762Z,99868.81
2023-01-18T16:22:35.932Z,99859.88
2023-01-18T16:25:09.729Z,99869.84
2023-01-18T16:27:53.052Z,99871.50
2023-01-18T16:30:30.162Z,99876.03
2023-01-18T16:33:10.147Z,99868.88
2023-01-18T16:35:39.938Z,99862.34
2023-01-18T16:38:14.756Z,99873.75
2023-01-18T16:40:45.082Z,99864.84
2023-01-18T16:43:18.277Z,99894.34
2023-01-18T16:45:47.775Z,99894.16
2023-01-18T16:48:21.369Z,99899.25
2023-01-18T16:50:49.561Z,99886.53
2023-01-18T16:53:17.590Z,99891.69
2023-01-18T16:55:45.127Z,99872.66
2023-01-18T16:58:16.434Z,99881.09
2023-01-18T17:01:02.233Z,99873.38
2023-01-18T17:03:29.550Z,99884.38
2023-01-18T17:05:56.729Z,99863.38
2023-01-18T17:08:23.863Z,99880.22
2023-01-18T17:10:52.245Z,99882.00
2023-01-18T17:13:19.421Z,99883.75
2023-01-18T17:15:46.810Z,99867.13
2023-01-18T17:18:17.097Z,99881.28
2023-01-18T17:20:44.798Z,99887.53
2023-01-18T17:23:12.247Z,99868.59
2023-01-18T17:25:39.818Z,99884.56
2023-01-18T17:28:08.086Z,99839.06
2023-01-18T17:30:35.262Z,99860.59
2023-01-18T17:33:02.574Z,99874.81
2023-01-18T17:35:32.097Z,99871.41
2023-01-18T17:38:05.297Z,99859.56
2023-01-18T17:40:43.389Z,99872.34
2023-01-18T17:43:16.916Z,99881.09
2023-01-18T17:45:58.722Z,99859.94
2023-01-18T17:48:27.739Z,99870.47
2023-01-18T17:50:54.846Z,99869.63
2023-01-18T17:53:21.930Z,99877.34
2023-01-18T17:55:49.432Z,99866.41
2023-01-18T17:58:16.571Z,99875.47
2023-01-18T18:00:43.709Z,99869.22
2023-01-18T18:03:10.850Z,99867.34
2023-01-18T18:05:38.002Z,99864.22
2023-01-18T18:08:06.365Z,99862.25
2023-01-18T18:10:33.492Z,99867.84
2023-01-18T18:13:01.015Z,99846.75
2023-01-18T18:15:28.365Z,99858.81
2023-01-18T18:17:55.470Z,99864.19
2023-01-18T18:20:22.986Z,99852.56
2023-01-18T18:22:50.321Z,99872.97
2023-01-18T18:25:18.021Z,99872.03
2023-01-18T18:27:46.811Z,99873.69
2023-01-18T18:30:16.829Z,99839.03
2023-01-18T18:32:44.065Z,99823.22
2023-01-18T18:35:24.337Z,99832.69
2023-01-18T18:37:53.761Z,99822.50
2023-01-18T18:40:20.998Z,99815.13
2023-01-18T18:43:00.652Z,99806.94
2023-01-18T18:45:29.578Z,99797.88
2023-01-18T18:47:56.693Z,99816.69
2023-01-18T18:50:23.846Z,99812.41
2023-01-18T18:52:51.019Z,99824.69
2023-01-18T18:55:19.169Z,99833.00
2023-01-18T18:57:46.291Z,99844.47
2023-01-18T19:00:14.131Z,99817.56
2023-01-18T19:02:41.324Z,99839.47
2023-01-18T19:05:09.068Z,99831.56
2023-01-18T19:07:36.359Z,99804.28
2023-01-18T19:10:05.280Z,99810.09
2023-01-18T19:12:32.537Z,99794.97
2023-01-18T19:14:59.740Z,99804.53
2023-01-18T19:17:30.718Z,99829.06
2023-01-18T19:19:58.852Z,99819.03
2023-01-18T19:22:26.316Z,99831.88
2023-01-18T19:24:53.539Z,99810.59
2023-01-18T19:27:24.749Z,99817.66
2023-01-18T19:29:53.493Z,99819.69
2023-01-18T19:32:21.515Z,99799.53
2023-01-18T19:34:48.665Z,99786.59
2023-01-18T19:37:15.953Z,99802.34
2023-01-18T19:39:43.060Z,99799.88
2023-01-18T19:42:10.178Z,99808.34
2023-01-18T19:44:37.272Z,99819.78
2023-01-18T19:47:04.485Z,99807.13
2023-01-18T19:49:31.672Z,99791.00
2023-01-18T19:51:58.893Z,99803.00
2023-01-18T19:54:26.273Z,99803.44
2023-01-18T19:56:53.387Z,99794.66
2023-01-18T19:59:20.565Z,99788.09
2023-01-18T20:01:47.842Z,99762.72
2023-01-18T20:04:15.051Z,99779.47
2023-01-18T20:06:45.074Z,99797.03
2023-01-18T20:09:20.289Z,99774.06
2023-01-18T20:11:48.905Z,99780.50
2023-01-18T20:14:16.705Z,99789.97
2023-01-18T20:16:46.037Z,99773.50
2023-01-18T20:19:14.734Z,99755.50
2023-01-18T20:21:41.898Z,99769.25
2023-01-18T20:24:09.479Z,99773.69
2023-01-18T20:26:40.019Z,99781.13
2023-01-18T20:29:08.104Z,99759.75
2023-01-18T20:31:37.172Z,99765.78
2023-01-18T20:34:05.395Z,99758.94
2023-01-18T20:36:34.964Z,99742.78
2023-01-18T20:39:03.628Z,99747.69
2023-01-18T20:41:30.915Z,99767.41
2023-01-18T20:43:58.041Z,99752.31
2023-01-18T20:46:25.264Z,99760.69
2023-01-18T20:48:52.348Z,99768.56
2023-01-18T20:51:19.452Z,99767.91
2023-01-18T20:53:46.737Z,99766.59
2023-01-18T20:56:28.473Z,99740.19
2023-01-18T20:58:57.266Z,99732.44
2023-01-18T21:01:31.485Z,99747.19
2023-01-18T21:04:00.134Z,99732.16
2023-01-18T21:06:27.540Z,99732.66
2023-01-18T21:08:56.252Z,99732.44
2023-01-18T21:11:25.483Z,99720.56
2023-01-18T21:13:56.419Z,99717.63
2023-01-18T21:16:23.850Z,99723.25
2023-01-18T21:18:52.802Z,99722.38
2023-01-18T21:21:20.531Z,99713.38
2023-01-18T21:23:47.670Z,99726.13
2023-01-18T21:26:15.153Z,99739.41
2023-01-18T21:28:42.338Z,99720.66
2023-01-18T21:31:09.563Z,99721.50
2023-01-18T21:33:37.374Z,99715.03
2023-01-18T21:36:06.862Z,99725.72
2023-01-18T21:38:34.368Z,99730.13
2023-01-18T21:41:21.782Z,99715.72
2023-01-18T21:44:08.728Z,99692.03
2023-01-18T21:46:36.772Z,99718.38
2023-01-18T21:49:05.126Z,99713.34
2023-01-18T21:51:50.690Z,99708.34
2023-01-18T21:54:18.549Z,99705.00
2023-01-18T21:56:47.342Z,99713.34
2023-01-18T21:59:14.823Z,99700.28
2023-01-18T22:01:44.935Z,99695.22
2023-01-18T22:04:33.407Z,99707.59
2023-01-18T22:07:00.865Z,99695.94
2023-01-18T22:09:29.707Z,99679.47
2023-01-18T22:11:57.513Z,99678.63
2023-01-18T22:14:25.773Z,99680.28
2023-01-18T22:16:53.417Z,99684.38
2023-01-18T22:19:20.665Z,99690.63
2023-01-18T22:21:48.495Z,99691.47
2023-01-18T22:24:17.648Z,99678.75
2023-01-18T22:26:45.797Z,99688.69
2023-01-18T22:29:13.754Z,99706.19
2023-01-18T22:31:40.814Z,99679.69
2023-01-18T22:34:17.443Z,99686.41
2023-01-18T22:36:44.559Z,99670.31
2023-01-18T22:39:12.777Z,99668.63
2023-01-18T22:41:40.006Z,99652.47
2023-01-18T22:44:07.132Z,99673.41
2023-01-18T22:46:34.471Z,99656.13
2023-01-18T22:49:01.639Z,99667.22
2023-01-18T22:51:28.859Z,99675.69
2023-01-18T22:53:56.476Z,99647.88
2023-01-18T22:56:25.492Z,99676.22
2023-01-18T22:58:52.912Z,99672.34
2023-01-18T23:01:26.642Z,99690.75
2023-01-18T23:03:56.381Z,99684.06
2023-01-18T23:06:23.541Z,99671.22
2023-01-18T23:08:51.158Z,99666.69
2023-01-18T23:11:21.872Z,99675.63
2023-01-18T23:14:10.372Z,99666.06
2023-01-18T23:16:56.583Z,99677.72
2023-01-18T23:19:28.194Z,99654.81
2023-01-18T23:21:56.793Z,99683.28
2023-01-18T23:24:24.570Z,99666.16
2023-01-18T23:26:52.427Z,99669.94
2023-01-18T23:29:20.290Z,99672.81
2023-01-18T23:31:47.585Z,99666.16
2023-01-18T23:34:14.883Z,99662.81
2023-01-18T23:36:42.042Z,99632.53
2023-01-18T23:39:27.704Z,99642.19
2023-01-18T23:42:13.374Z,99655.69
2023-01-18T23:44:58.926Z,99620.66
2023-01-18T23:47:46.079Z,99620.84
2023-01-18T23:50:31.759Z,99633.84
2023-01-18T23:53:20.881Z,99634.84
2023-01-18T23:55:51.768Z,99640.09
2023-01-18T23:58:18.911Z,99622.13
